ニジネヴァルトフスク の空港の天気 - METARとTAF

Nizhnevartovsk ( USNN / NJC ) - ロシア ニジネヴァルトフスク
飛行場実況気象(Metar)
観測時間06/25 13:30 YEKT (06/25 08:30 UTC)
風向・風速西 4m/s
視程10km以上
天気現象
全天の4割程度の雲 雲底高度 1130m
気温23℃
湿度65%
気圧1002hPa
METARUSNN 250830Z 26004MPS 9999 SCT037 23/16 Q1002 R21/0///65 NOSIG RMK QFE747
過去の天気等 Google飛行場航空写真 Wunderground天気予報

過去48時間のMETAR

飛行場予報(TAF)
データがありません